Time;durP1;ratioP1;P1;durP2;ratioP2;P2;SDS_P1;SDS_P2;PMS_P1;PMS_P2;Temp;Humidity;BMP_temperature;BMP_pressure;BME280_temperature;BME280_humidity;BME280_pressure;Samples;Min_cycle;Max_cycle;Signal;HPM_P1;HPM_P2
2022/03/22 05:01:32;;;;;;;24.43;14.57;;;2.50;99.90;;;;;;5476381;23;20575;-78
2022/03/22 05:03:59;;;;;;;21.37;13.97;;;2.50;99.90;;;;;;4966760;28;20464;-77
2022/03/22 05:06:28;;;;;;;20.87;13.80;;;2.50;99.90;;;;;;4966399;28;20467;-78
2022/03/22 05:08:56;;;;;;;19.70;13.77;;;2.40;99.90;;;;;;4966495;28;20504;-80
2022/03/22 05:11:23;;;;;;;21.40;13.53;;;2.50;99.90;;;;;;4967000;28;20495;-78
2022/03/22 05:13:50;;;;;;;30.40;14.47;;;2.50;99.90;;;;;;4966900;28;20460;-77
2022/03/22 05:16:17;;;;;;;25.10;14.70;;;2.50;99.90;;;;;;4966133;28;20837;-80
2022/03/22 05:18:47;;;;;;;25.43;13.13;;;2.40;99.90;;;;;;4968080;28;20460;-78
2022/03/22 05:21:14;;;;;;;23.13;13.80;;;2.40;99.90;;;;;;4967155;28;20484;-78
2022/03/22 05:23:42;;;;;;;25.50;14.23;;;2.30;99.90;;;;;;4968422;28;20475;-77
2022/03/22 05:26:08;;;;;;;21.53;14.90;;;2.30;99.90;;;;;;4968349;28;20471;-78
2022/03/22 05:28:37;;;;;;;21.80;14.87;;;2.30;99.90;;;;;;4968022;28;20467;-78
2022/03/22 05:31:04;;;;;;;21.37;14.57;;;2.20;99.90;;;;;;4968051;28;20491;-78
2022/03/22 05:33:31;;;;;;;26.43;14.80;;;2.20;99.90;;;;;;4968749;28;20456;-78
2022/03/22 05:36:00;;;;;;;25.13;15.30;;;2.20;99.90;;;;;;4968377;28;20539;-73
2022/03/22 05:38:27;;;;;;;22.50;14.33;;;2.20;99.90;;;;;;4966134;28;20460;-66
2022/03/22 05:40:53;;;;;;;23.03;15.33;;;2.20;99.90;;;;;;4966448;28;20484;-66
2022/03/22 05:43:21;;;;;;;24.70;15.50;;;2.20;99.90;;;;;;4967490;28;20893;-79
2022/03/22 05:45:49;;;;;;;22.40;14.57;;;2.20;99.90;;;;;;4969227;28;20455;-78
2022/03/22 05:48:16;;;;;;;26.50;14.33;;;2.20;99.90;;;;;;4970687;28;20453;-78
2022/03/22 05:50:43;;;;;;;25.43;15.70;;;2.20;99.90;;;;;;4971743;28;20500;-78
2022/03/22 05:53:11;;;;;;;25.70;15.57;;;2.20;99.90;;;;;;4972712;28;20464;-78
2022/03/22 05:55:38;;;;;;;29.60;16.60;;;2.20;99.90;;;;;;4973142;28;20523;-77
2022/03/22 05:58:05;;;;;;;25.17;15.70;;;2.20;99.90;;;;;;4972691;28;20456;-78
2022/03/22 06:00:32;;;;;;;23.57;16.03;;;2.20;99.90;;;;;;4973020;28;20539;-77
2022/03/22 06:02:59;;;;;;;26.73;15.60;;;2.20;99.90;;;;;;4975752;28;20463;-77
2022/03/22 06:05:27;;;;;;;21.17;15.40;;;2.30;99.90;;;;;;4976710;28;20555;-78
2022/03/22 06:07:54;;;;;;;27.20;15.93;;;2.30;99.90;;;;;;4971167;28;20887;-78
2022/03/22 06:10:23;;;;;;;22.90;14.70;;;2.30;99.90;;;;;;4972142;28;20506;-77
2022/03/22 06:12:52;;;;;;;27.13;16.03;;;2.30;99.90;;;;;;4971593;28;20900;-77
2022/03/22 06:15:21;;;;;;;22.03;14.80;;;2.30;99.90;;;;;;4971670;28;20463;-78
2022/03/22 06:17:49;;;;;;;19.73;14.40;;;2.30;99.90;;;;;;4970749;28;20464;-78
2022/03/22 06:20:18;;;;;;;22.00;14.63;;;2.30;99.90;;;;;;4971177;28;20864;-78
2022/03/22 06:22:45;;;;;;;27.17;16.27;;;2.30;99.90;;;;;;4971233;28;20455;-77
2022/03/22 06:25:13;;;;;;;30.43;17.33;;;2.30;99.90;;;;;;4971882;28;20456;-79
2022/03/22 06:27:43;;;;;;;25.10;15.43;;;2.30;99.90;;;;;;4971120;28;20462;-78
2022/03/22 06:30:12;;;;;;;31.20;16.23;;;2.30;99.90;;;;;;4972516;28;20594;-78
2022/03/22 06:32:42;;;;;;;26.33;16.87;;;2.30;99.90;;;;;;4976011;28;20456;-79
2022/03/22 06:35:11;;;;;;;24.87;15.20;;;2.30;99.90;;;;;;4976078;28;20487;-77
2022/03/22 06:37:38;;;;;;;30.00;15.83;;;2.30;99.90;;;;;;4973472;28;20464;-77
2022/03/22 06:40:09;;;;;;;25.73;17.83;;;2.30;99.90;;;;;;4974518;28;20547;-78
2022/03/22 06:42:40;;;;;;;21.37;13.93;;;2.40;99.90;;;;;;4973975;28;20477;-76
2022/03/22 06:45:10;;;;;;;27.47;15.80;;;2.40;99.90;;;;;;4972602;28;20460;-77
2022/03/22 06:47:39;;;;;;;25.87;16.60;;;2.50;99.90;;;;;;4970791;28;20445;-76
2022/03/22 06:50:07;;;;;;;23.57;15.60;;;2.60;99.90;;;;;;4973156;28;20497;-77
2022/03/22 06:52:34;;;;;;;25.33;15.07;;;2.60;99.90;;;;;;4975871;28;20479;-77
2022/03/22 06:55:01;;;;;;;17.97;12.77;;;2.70;99.90;;;;;;4973550;28;20460;-77
2022/03/22 06:57:28;;;;;;;23.13;15.17;;;2.70;99.90;;;;;;4973478;28;20470;-77
2022/03/22 06:59:55;;;;;;;29.37;15.97;;;2.70;99.90;;;;;;4970883;28;20457;-77
2022/03/22 07:02:24;;;;;;;30.10;17.40;;;2.90;99.90;;;;;;4972082;28;20577;-78
2022/03/22 07:04:51;;;;;;;25.07;15.63;;;2.90;99.90;;;;;;4972008;28;20895;-77
2022/03/22 07:07:18;;;;;;;26.00;16.10;;;2.90;99.90;;;;;;4985825;28;20460;-77
2022/03/22 07:09:46;;;;;;;26.10;16.17;;;3.00;99.90;;;;;;4989440;28;20495;-77
2022/03/22 07:12:14;;;;;;;32.07;17.07;;;3.10;99.90;;;;;;4990243;28;20480;-78
2022/03/22 07:14:41;;;;;;;31.73;15.63;;;3.10;99.90;;;;;;4982539;28;20464;-78
2022/03/22 07:17:08;;;;;;;24.43;14.93;;;3.20;99.90;;;;;;4970486;28;20523;-78
2022/03/22 07:19:37;;;;;;;24.13;15.27;;;3.30;99.90;;;;;;4970578;28;20452;-78
2022/03/22 07:22:05;;;;;;;22.23;15.53;;;3.30;99.90;;;;;;4970762;28;20480;-78
2022/03/22 07:24:33;;;;;;;24.93;15.60;;;3.40;99.90;;;;;;4970827;28;20445;-78
2022/03/22 07:27:00;;;;;;;21.90;14.77;;;3.50;99.90;;;;;;4969444;28;20455;-78
2022/03/22 07:29:27;;;;;;;25.60;15.40;;;3.60;99.90;;;;;;4970422;28;20464;-78
2022/03/22 07:31:56;;;;;;;21.77;14.40;;;3.70;99.90;;;;;;4970366;28;20520;-78
2022/03/22 07:34:24;;;;;;;22.97;15.70;;;3.80;99.90;;;;;;4970360;28;20449;-78
2022/03/22 07:36:53;;;;;;;24.73;15.10;;;3.90;99.90;;;;;;4969362;28;20472;-78
2022/03/22 07:39:23;;;;;;;19.03;13.83;;;4.00;99.90;;;;;;4970639;28;20456;-78
2022/03/22 07:41:51;;;;;;;23.80;15.50;;;4.10;99.90;;;;;;4969732;28;20476;-78
2022/03/22 07:44:18;;;;;;;24.83;14.93;;;4.20;99.90;;;;;;4970513;28;20452;-78
2022/03/22 07:46:48;;;;;;;24.60;14.03;;;4.40;99.90;;;;;;4969735;28;21011;-78
2022/03/22 07:54:46;;;;;;;19.20;14.03;;;4.70;99.90;;;;;;4969611;28;20464;-78
2022/03/22 07:57:13;;;;;;;19.90;13.50;;;4.80;99.90;;;;;;4969131;28;20496;-79
2022/03/22 07:59:47;;;;;;;22.20;12.20;;;4.90;99.90;;;;;;4969398;28;20528;-78
2022/03/22 08:02:14;;;;;;;19.30;12.40;;;5.10;99.90;;;;;;4969153;28;20516;-78
2022/03/22 08:04:41;;;;;;;19.17;12.40;;;5.30;99.90;;;;;;4969531;28;20467;-79
2022/03/22 08:07:09;;;;;;;21.40;12.77;;;5.50;99.90;;;;;;4969453;28;20539;-79
2022/03/22 08:09:38;;;;;;;16.50;11.90;;;5.60;99.90;;;;;;4969930;28;20802;-79
2022/03/22 08:12:06;;;;;;;17.27;11.70;;;5.80;99.90;;;;;;4969762;28;20484;-78
2022/03/22 08:14:33;;;;;;;16.80;11.80;;;5.90;99.90;;;;;;4969295;28;20463;-78
2022/03/22 08:17:00;;;;;;;22.63;13.87;;;6.20;99.90;;;;;;4968688;28;20536;-79
2022/03/22 08:19:29;;;;;;;18.63;11.90;;;6.40;99.90;;;;;;4969374;28;20543;-79
2022/03/22 08:21:56;;;;;;;19.93;13.30;;;6.60;99.90;;;;;;4969740;28;20716;-78
2022/03/22 08:24:24;;;;;;;17.23;13.10;;;6.80;99.90;;;;;;4968925;28;20452;-78
2022/03/22 08:26:51;;;;;;;19.67;13.15;;;7.10;99.90;;;;;;4967047;28;20798;-78
2022/03/22 08:29:18;;;;;;;19.50;12.40;;;7.90;99.90;;;;;;4968794;28;20221;-78
2022/03/22 08:31:45;;;;;;;18.07;13.80;;;8.20;99.90;;;;;;4968719;28;20568;-78
2022/03/22 08:34:12;;;;;;;18.37;11.63;;;8.40;99.90;;;;;;4968975;28;20456;-78
2022/03/22 08:36:52;;;;;;;13.90;9.60;;;8.60;99.90;;;;;;4967622;28;20468;-78
2022/03/22 08:39:22;;;;;;;16.43;10.67;;;8.80;99.90;;;;;;4968616;28;20507;-78
2022/03/22 08:41:52;;;;;;;14.90;10.73;;;8.80;97.70;;;;;;4968193;28;20575;-78
2022/03/22 08:44:20;;;;;;;17.20;11.93;;;8.80;98.10;;;;;;4968264;28;20537;-78
2022/03/22 08:46:51;;;;;;;17.07;10.90;;;8.70;97.60;;;;;;4967370;28;20460;-78
2022/03/22 08:49:18;;;;;;;17.83;11.33;;;8.70;98.20;;;;;;4967920;28;20547;-78
2022/03/22 08:51:45;;;;;;;18.93;9.50;;;8.80;96.80;;;;;;4967708;28;20563;-79
2022/03/22 08:54:11;;;;;;;15.03;10.80;;;9.20;98.40;;;;;;4968113;28;20539;-78
2022/03/22 08:56:39;;;;;;;14.80;10.53;;;9.60;95.70;;;;;;4966983;28;20460;-78
2022/03/22 08:59:07;;;;;;;18.73;10.97;;;10.00;96.10;;;;;;4968117;28;20514;-78
2022/03/22 09:01:34;;;;;;;14.17;10.87;;;10.20;95.20;;;;;;4967629;28;20515;-78
2022/03/22 09:06:45;;;;;;;13.80;11.60;;;10.90;95.30;;;;;;4968350;28;20444;-78
2022/03/22 09:09:13;;;;;;;13.23;10.67;;;10.80;93.50;;;;;;4968295;28;20464;-78
2022/03/22 09:11:40;;;;;;;19.93;12.00;;;11.20;94.50;;;;;;4969310;28;20501;-78
2022/03/22 09:14:08;;;;;;;12.70;10.37;;;11.70;95.40;;;;;;4967495;28;20452;-78
2022/03/22 09:16:36;;;;;;;18.70;12.03;;;12.30;92.50;;;;;;4965824;28;20556;-78
2022/03/22 09:19:03;;;;;;;15.30;11.20;;;12.60;93.40;;;;;;4966886;28;20492;-78
2022/03/22 09:21:30;;;;;;;15.90;11.83;;;12.70;92.30;;;;;;4966492;28;20483;-78
2022/03/22 09:24:00;;;;;;;14.80;11.33;;;12.90;91.40;;;;;;4967305;28;20464;-78
2022/03/22 09:26:27;;;;;;;14.30;11.27;;;13.20;92.40;;;;;;4967085;28;20500;-78
2022/03/22 09:28:54;;;;;;;15.40;11.30;;;13.30;90.90;;;;;;4967034;28;20468;-77
2022/03/22 09:31:24;;;;;;;14.17;11.43;;;13.40;91.70;;;;;;4966713;28;20558;-77
2022/03/22 09:33:51;;;;;;;14.67;10.23;;;13.50;91.10;;;;;;4966932;28;20515;-79
2022/03/22 09:36:18;;;;;;;15.10;10.70;;;13.50;90.10;;;;;;4964447;28;20483;-77
2022/03/22 09:38:46;;;;;;;15.53;11.43;;;13.50;91.80;;;;;;4965433;28;20557;-78
2022/03/22 09:41:14;;;;;;;17.90;12.07;;;13.90;90.30;;;;;;4966144;28;20491;-77
2022/03/22 09:43:47;;;;;;;15.57;12.40;;;14.10;90.40;;;;;;4965881;28;20497;-78
2022/03/22 09:46:18;;;;;;;14.93;11.10;;;14.00;88.10;;;;;;4965869;28;20460;-77
2022/03/22 09:48:48;;;;;;;18.80;11.30;;;13.90;89.20;;;;;;4981069;28;20458;-77
2022/03/22 09:54:07;;;;;;;14.50;11.10;;;13.90;88.90;;;;;;4986146;28;20436;-78
2022/03/22 09:56:34;;;;;;;15.23;12.13;;;14.00;88.70;;;;;;4965722;28;20456;-78
2022/03/22 09:59:04;;;;;;;16.57;12.07;;;14.20;88.40;;;;;;4965781;28;20976;-80
2022/03/22 10:01:31;;;;;;;20.07;12.00;;;14.30;87.20;;;;;;4965957;28;20492;-78
2022/03/22 10:04:05;;;;;;;15.60;11.87;;;14.30;86.50;;;;;;4966656;28;21010;-79
2022/03/22 10:06:33;;;;;;;15.97;11.50;;;14.20;86.50;;;;;;4966299;28;21083;-81
2022/03/22 10:09:02;;;;;;;14.27;10.47;;;14.30;86.30;;;;;;4966852;28;20457;-78
2022/03/22 10:11:36;;;;;;;15.50;11.97;;;14.70;87.90;;;;;;4967724;28;20943;-79
2022/03/22 10:14:03;;;;;;;16.03;11.77;;;15.00;86.40;;;;;;4967917;28;20465;-79
2022/03/22 10:16:30;;;;;;;19.53;11.80;;;15.30;84.30;;;;;;4967799;28;20463;-78
2022/03/22 10:18:57;;;;;;;14.43;11.20;;;15.10;82.80;;;;;;4968402;28;20463;-79
2022/03/22 10:21:25;;;;;;;19.37;12.40;;;14.90;83.50;;;;;;4968103;28;20476;-79
2022/03/22 10:23:57;;;;;;;13.40;11.67;;;14.80;83.30;;;;;;4967176;28;20464;-78
2022/03/22 10:26:33;;;;;;;16.27;11.33;;;14.90;84.70;;;;;;4966004;28;20535;-77
2022/03/22 10:29:00;;;;;;;15.23;11.53;;;15.20;84.80;;;;;;4966810;28;20558;-78
2022/03/22 10:31:35;;;;;;;16.90;12.80;;;15.60;84.30;;;;;;4966506;28;20511;-77
2022/03/22 10:34:02;;;;;;;12.97;10.70;;;16.20;85.10;;;;;;4968498;28;20448;-78
2022/03/22 10:36:34;;;;;;;15.60;13.13;;;16.50;82.60;;;;;;4968997;28;20456;-79
2022/03/22 10:39:02;;;;;;;17.87;12.50;;;16.50;80.30;;;;;;4969656;28;20481;-77
2022/03/22 10:41:31;;;;;;;17.93;12.20;;;16.30;81.80;;;;;;4969855;28;20472;-77
2022/03/22 10:44:06;;;;;;;15.30;12.17;;;16.60;82.90;;;;;;4969873;28;21294;-79
2022/03/22 10:46:33;;;;;;;19.50;12.50;;;17.20;82.70;;;;;;4969319;28;20970;-77
2022/03/22 10:49:06;;;;;;;15.77;11.37;;;17.40;78.50;;;;;;4970063;28;20449;-77
2022/03/22 10:51:36;;;;;;;18.67;13.13;;;17.30;80.10;;;;;;4969928;28;20506;-77
2022/03/22 10:54:03;;;;;;;16.70;12.07;;;17.20;78.50;;;;;;4969945;28;20448;-77
2022/03/22 10:56:31;;;;;;;15.00;11.90;;;17.40;78.60;;;;;;4969942;28;20460;-78
2022/03/22 10:59:00;;;;;;;16.83;12.33;;;17.50;80.60;;;;;;4971451;28;20457;-79
2022/03/22 11:01:27;;;;;;;15.17;12.07;;;18.30;81.00;;;;;;4970824;28;20484;-78
2022/03/22 11:03:57;;;;;;;16.00;13.17;;;19.10;80.20;;;;;;4970990;28;20460;-80
2022/03/22 11:06:30;;;;;;;17.30;12.60;;;20.20;75.20;;;;;;4970614;28;20453;-79
2022/03/22 11:09:00;;;;;;;14.03;12.53;;;20.00;74.20;;;;;;4970645;28;20971;-79
2022/03/22 11:11:28;;;;;;;14.70;12.93;;;19.60;74.80;;;;;;4971279;28;20506;-79
2022/03/22 11:13:55;;;;;;;17.03;12.87;;;19.20;75.10;;;;;;4970947;28;20460;-78
2022/03/22 11:16:24;;;;;;;15.97;12.07;;;19.00;74.70;;;;;;4970098;28;20544;-78
2022/03/22 11:18:51;;;;;;;16.50;13.07;;;18.80;75.00;;;;;;4969848;28;20492;-66
2022/03/22 11:21:20;;;;;;;15.87;12.40;;;18.90;74.20;;;;;;4967015;28;20478;-69
2022/03/22 11:23:47;;;;;;;16.40;12.90;;;18.90;75.80;;;;;;4968165;28;21115;-70
2022/03/22 11:26:19;;;;;;;19.10;13.30;;;18.80;74.60;;;;;;4967217;28;20460;-68
2022/03/22 11:28:48;;;;;;;20.83;12.80;;;18.90;76.00;;;;;;4968223;28;20460;-68
2022/03/22 11:31:19;;;;;;;18.30;13.97;;;19.10;76.90;;;;;;4968740;28;20511;-67
2022/03/22 11:36:43;;;;;;;19.27;13.40;;;19.70;72.40;;;;;;4972081;28;20491;-82
2022/03/22 11:39:10;;;;;;;15.67;13.20;;;19.60;73.10;;;;;;4973479;28;20460;-81
2022/03/22 11:44:34;;;;;;;21.03;14.43;;;19.50;71.10;;;;;;4972020;28;20452;-83
2022/03/22 11:47:07;;;;;;;18.57;13.70;;;19.30;72.60;;;;;;4972277;28;20815;-80
2022/03/22 11:49:50;;;;;;;15.43;12.17;;;20.20;71.80;;;;;;4972449;28;20448;-81
2022/03/22 11:52:19;;;;;;;17.80;13.03;;;20.90;73.30;;;;;;4972581;28;20599;-81
2022/03/22 11:55:00;;;;;;;16.23;13.00;;;21.20;69.50;;;;;;4973472;28;20544;-81
2022/03/22 11:57:40;;;;;;;15.83;12.93;;;20.90;69.90;;;;;;4973025;28;20520;-81
2022/03/22 12:00:09;;;;;;;17.27;13.43;;;20.60;70.10;;;;;;4973992;28;20515;-81
2022/03/22 12:02:39;;;;;;;15.57;12.97;;;20.30;69.30;;;;;;4974143;28;20512;-81
2022/03/22 12:05:06;;;;;;;17.53;12.83;;;20.00;70.50;;;;;;4973375;28;20463;-78
2022/03/22 12:07:36;;;;;;;18.33;13.63;;;19.80;69.60;;;;;;4971391;28;20456;-79
2022/03/22 12:10:07;;;;;;;17.27;13.43;;;19.80;69.80;;;;;;4972431;28;20461;-81
2022/03/22 12:12:37;;;;;;;20.43;13.70;;;19.60;69.50;;;;;;4967545;28;21213;-79
2022/03/22 12:15:07;;;;;;;18.20;13.40;;;20.20;72.60;;;;;;4969157;28;20471;-80
2022/03/22 12:17:34;;;;;;;16.27;13.07;;;21.00;70.20;;;;;;4969999;28;20551;-80
2022/03/22 12:20:03;;;;;;;22.10;14.17;;;21.10;69.70;;;;;;4969547;28;20539;-79
2022/03/22 12:22:31;;;;;;;16.70;13.40;;;21.40;70.80;;;;;;4968269;28;20531;-78
2022/03/22 12:24:59;;;;;;;18.30;14.43;;;22.30;68.40;;;;;;4967689;28;20467;-79
2022/03/22 12:27:26;;;;;;;18.40;13.67;;;22.80;68.10;;;;;;4969825;28;20457;-79
2022/03/22 12:29:56;;;;;;;17.60;13.10;;;23.00;64.20;;;;;;4969815;28;20448;-79
2022/03/22 12:32:27;;;;;;;15.60;13.07;;;22.50;65.50;;;;;;4969546;28;20958;-79
2022/03/22 12:34:55;;;;;;;18.77;13.57;;;22.30;66.10;;;;;;4969574;28;20468;-79
2022/03/22 12:37:22;;;;;;;16.13;13.40;;;22.30;65.80;;;;;;4967824;28;20543;-79
2022/03/22 12:39:50;;;;;;;18.17;14.60;;;22.00;64.30;;;;;;4968053;28;20547;-79
2022/03/22 12:42:18;;;;;;;17.13;13.53;;;21.70;64.40;;;;;;4966791;28;20473;-78
2022/03/22 12:44:47;;;;;;;15.03;12.80;;;21.80;66.60;;;;;;4968243;28;20968;-79
2022/03/22 12:47:19;;;;;;;16.93;13.80;;;22.50;65.10;;;;;;4966104;28;20532;-80
2022/03/22 12:49:47;;;;;;;16.90;13.13;;;22.60;64.30;;;;;;4966055;28;20973;-80
2022/03/22 12:52:14;;;;;;;17.10;13.17;;;22.60;64.40;;;;;;4968312;28;21109;-80
2022/03/22 12:54:43;;;;;;;17.93;14.23;;;22.70;65.60;;;;;;4968876;28;20467;-79
2022/03/22 12:57:14;;;;;;;19.03;14.40;;;22.80;63.60;;;;;;4965943;28;20543;-71
2022/03/22 12:59:42;;;;;;;20.20;15.20;;;22.40;63.70;;;;;;4966889;28;20475;-71
2022/03/22 13:02:10;;;;;;;20.50;14.77;;;22.10;63.80;;;;;;4966807;28;20480;-71
2022/03/22 13:04:46;;;;;;;25.13;15.73;;;21.80;63.70;;;;;;4966812;28;20965;-70
2022/03/22 13:07:14;;;;;;;17.00;13.77;;;21.60;63.80;;;;;;4966062;28;20456;-71
2022/03/22 13:12:26;;;;;;;17.90;13.93;;;21.80;65.00;;;;;;4966746;28;20499;-71
2022/03/22 13:15:08;;;;;;;18.63;13.50;;;21.80;64.20;;;;;;4966872;28;20547;-71
2022/03/22 13:17:38;;;;;;;16.83;13.47;;;22.10;65.50;;;;;;4965834;28;20448;-71
2022/03/22 13:20:13;;;;;;;16.53;13.57;;;22.10;62.70;;;;;;4966361;28;20454;-72
2022/03/22 13:22:53;;;;;;;17.97;13.30;;;21.90;63.00;;;;;;4966448;28;20452;-70
2022/03/22 13:25:26;;;;;;;17.97;14.13;;;22.10;64.40;;;;;;4966712;28;20623;-72
2022/03/22 13:27:55;;;;;;;17.53;13.10;;;22.30;64.10;;;;;;4966270;28;20492;-69
2022/03/22 13:30:23;;;;;;;16.60;13.50;;;22.50;63.30;;;;;;4966971;28;20500;-71
2022/03/22 13:32:50;;;;;;;16.97;13.23;;;22.60;63.40;;;;;;4966550;28;20604;-72
2022/03/22 13:35:20;;;;;;;19.27;14.03;;;22.50;64.10;;;;;;4966665;28;20484;-69
2022/03/22 13:37:50;;;;;;;17.90;13.30;;;22.70;63.20;;;;;;4965597;28;20536;-72
2022/03/22 13:40:18;;;;;;;17.00;13.30;;;22.80;63.50;;;;;;4966331;28;20467;-73
2022/03/22 13:42:58;;;;;;;21.17;14.57;;;22.60;61.80;;;;;;4966683;28;20456;-72
2022/03/22 13:45:25;;;;;;;21.13;14.73;;;22.30;63.60;;;;;;4973403;28;20995;-73
2022/03/22 13:47:54;;;;;;;21.73;13.87;;;22.40;63.60;;;;;;4984169;28;20459;-72
2022/03/22 13:50:24;;;;;;;17.30;13.70;;;22.40;63.10;;;;;;4985585;28;20515;-72
2022/03/22 13:53:07;;;;;;;20.70;14.70;;;22.40;63.40;;;;;;4985876;28;20495;-73
2022/03/22 13:55:37;;;;;;;19.27;14.17;;;22.50;62.30;;;;;;4985928;28;20803;-73
2022/03/22 13:58:10;;;;;;;17.33;13.30;;;22.60;63.30;;;;;;4985419;28;20483;-70
2022/03/22 14:00:40;;;;;;;15.60;12.77;;;22.60;61.80;;;;;;4985329;28;20487;-69
2022/03/22 14:03:07;;;;;;;20.80;13.80;;;22.70;61.20;;;;;;4985670;28;20554;-73
2022/03/22 14:05:36;;;;;;;19.10;13.90;;;22.90;61.60;;;;;;4986016;28;20547;-73
2022/03/22 14:08:03;;;;;;;15.90;12.20;;;22.90;62.10;;;;;;4985664;28;21196;-73
2022/03/22 14:10:30;;;;;;;18.80;13.37;;;22.90;64.00;;;;;;4985713;28;20452;-73
2022/03/22 14:12:58;;;;;;;16.70;13.20;;;23.00;64.10;;;;;;4978313;28;20591;-73
2022/03/22 14:15:25;;;;;;;13.93;12.43;;;23.00;63.40;;;;;;4986361;28;20459;-73
2022/03/22 14:17:52;;;;;;;18.53;13.50;;;23.10;60.90;;;;;;4969209;28;20463;-73
2022/03/22 14:20:21;;;;;;;16.93;13.40;;;23.10;60.00;;;;;;4981437;28;20944;-70
2022/03/22 14:22:51;;;;;;;18.50;13.50;;;23.00;59.80;;;;;;4985100;28;20479;-72
2022/03/22 14:25:19;;;;;;;14.97;12.70;;;22.90;61.50;;;;;;4985443;28;20483;-72
2022/03/22 14:27:48;;;;;;;16.87;12.90;;;22.80;61.00;;;;;;4977968;28;20470;-72
2022/03/22 14:30:17;;;;;;;18.73;14.77;;;22.90;62.50;;;;;;4987365;28;20562;-72
2022/03/22 14:32:48;;;;;;;19.03;13.40;;;23.00;61.30;;;;;;4980646;28;20491;-72
2022/03/22 14:38:02;;;;;;;21.20;14.13;;;22.40;60.90;;;;;;4972069;28;20464;-72
2022/03/22 14:40:30;;;;;;;16.43;13.67;;;22.40;61.40;;;;;;4968697;28;20960;-72
2022/03/22 14:42:58;;;;;;;17.17;12.80;;;22.40;61.10;;;;;;4977939;28;20454;-72
2022/03/22 14:45:25;;;;;;;22.50;14.10;;;22.50;60.80;;;;;;4974560;28;20471;-72
2022/03/22 14:47:53;;;;;;;22.80;13.37;;;22.60;60.60;;;;;;4977615;28;20861;-70
2022/03/22 14:50:21;;;;;;;15.77;13.00;;;22.70;60.20;;;;;;4986817;28;20542;-70
2022/03/22 14:55:35;;;;;;;19.03;12.70;;;22.90;61.00;;;;;;4972741;28;20487;-70
2022/03/22 15:00:53;;;;;;;14.63;12.33;;;23.10;61.50;;;;;;4968832;28;20480;-70
2022/03/22 15:03:24;;;;;;;16.07;13.50;;;23.20;62.50;;;;;;4985169;28;20831;-70
2022/03/22 15:05:52;;;;;;;17.60;13.80;;;23.20;60.10;;;;;;4979589;28;20523;-68
2022/03/22 15:08:21;;;;;;;15.40;12.70;;;23.10;61.00;;;;;;4974473;28;20981;-75
2022/03/22 15:10:51;;;;;;;19.97;14.27;;;22.90;61.60;;;;;;4986715;28;20491;-75
2022/03/22 15:13:18;;;;;;;17.03;13.93;;;22.90;59.00;;;;;;4980194;28;20554;-70
2022/03/22 15:15:45;;;;;;;16.00;12.73;;;22.60;59.70;;;;;;4982377;28;21190;-68
2022/03/22 15:18:14;;;;;;;17.60;12.30;;;22.60;62.10;;;;;;4985539;28;20452;-74
2022/03/22 15:20:42;;;;;;;17.30;13.27;;;22.60;60.60;;;;;;4987049;28;21026;-73
2022/03/22 15:23:12;;;;;;;19.43;13.37;;;22.70;61.10;;;;;;4964368;28;20453;-72
2022/03/22 15:25:40;;;;;;;15.43;12.90;;;22.80;60.20;;;;;;4975614;28;20448;-70
2022/03/22 15:28:09;;;;;;;16.17;13.10;;;22.80;60.20;;;;;;4969655;28;20977;-70
2022/03/22 15:30:36;;;;;;;15.97;12.23;;;22.90;60.70;;;;;;4981114;28;21039;-70
2022/03/22 15:33:03;;;;;;;16.13;13.40;;;23.00;58.60;;;;;;4977688;28;20495;-70
2022/03/22 15:35:31;;;;;;;15.13;12.03;;;22.90;58.60;;;;;;4977370;28;20904;-72
2022/03/22 15:37:58;;;;;;;15.97;13.20;;;22.90;60.20;;;;;;4983027;28;20466;-71
2022/03/22 15:40:28;;;;;;;16.80;13.80;;;22.90;60.20;;;;;;4976489;28;20455;-72
2022/03/22 15:42:55;;;;;;;16.47;14.13;;;23.00;61.30;;;;;;4972764;28;20544;-71
2022/03/22 15:45:24;;;;;;;16.17;12.77;;;23.30;62.30;;;;;;4974836;28;20574;-72
2022/03/22 15:47:51;;;;;;;16.53;13.10;;;23.40;59.80;;;;;;4986528;28;20492;-72
2022/03/22 15:50:19;;;;;;;16.43;13.50;;;23.50;61.30;;;;;;4963783;28;20452;-72
2022/03/22 15:52:47;;;;;;;16.40;12.27;;;23.50;58.80;;;;;;4980300;28;20487;-72
2022/03/22 15:55:16;;;;;;;19.00;14.17;;;23.60;60.20;;;;;;4987392;28;20454;-71
2022/03/22 15:57:43;;;;;;;18.33;13.80;;;23.70;59.90;;;;;;4986504;28;20463;-72
2022/03/22 16:00:12;;;;;;;19.33;13.97;;;23.70;60.50;;;;;;4981681;28;20455;-69
2022/03/22 16:02:41;;;;;;;18.20;14.53;;;23.70;59.80;;;;;;4980055;28;20456;-75
2022/03/22 16:05:09;;;;;;;15.77;14.00;;;23.70;59.90;;;;;;4985906;28;20467;-73
2022/03/22 16:07:36;;;;;;;19.17;15.10;;;23.70;60.10;;;;;;4978345;28;20459;-73
2022/03/22 16:10:04;;;;;;;16.37;13.53;;;23.70;59.80;;;;;;4972600;28;21182;-73
2022/03/22 16:12:31;;;;;;;17.83;14.87;;;23.80;60.10;;;;;;4978621;28;20506;-72
2022/03/22 16:14:58;;;;;;;20.00;15.00;;;23.70;60.90;;;;;;4976117;28;20464;-72
2022/03/22 16:17:25;;;;;;;19.40;14.33;;;23.60;59.80;;;;;;4968486;28;20453;-72
2022/03/22 16:19:54;;;;;;;18.43;13.57;;;23.50;61.80;;;;;;4970307;28;20457;-73
2022/03/22 16:22:21;;;;;;;17.00;13.30;;;23.40;60.50;;;;;;4976473;28;20476;-72
2022/03/22 16:24:50;;;;;;;16.53;12.27;;;23.30;59.10;;;;;;4967502;28;20969;-73
2022/03/22 16:27:17;;;;;;;14.10;11.10;;;23.30;58.30;;;;;;4973722;28;20452;-70
2022/03/22 16:29:45;;;;;;;14.93;10.10;;;23.40;57.60;;;;;;4987097;28;20459;-70
2022/03/22 16:32:12;;;;;;;13.80;10.20;;;23.60;57.00;;;;;;4986679;28;20519;-70
2022/03/22 16:37:24;;;;;;;12.60;7.17;;;23.70;56.00;;;;;;4971173;28;20967;-70
2022/03/22 16:39:53;;;;;;;12.60;7.33;;;23.70;53.50;;;;;;4973313;28;20532;-70
2022/03/22 16:42:21;;;;;;;9.57;7.47;;;23.70;53.90;;;;;;4958959;28;20476;-70
2022/03/22 16:44:50;;;;;;;7.90;6.80;;;23.70;53.30;;;;;;4968827;28;20465;-70
2022/03/22 16:47:19;;;;;;;13.83;7.13;;;23.70;52.10;;;;;;4972483;28;20451;-71
2022/03/22 16:49:48;;;;;;;11.97;7.43;;;23.60;52.30;;;;;;4983693;28;20467;-75
2022/03/22 16:52:16;;;;;;;10.63;6.73;;;23.50;53.50;;;;;;4973207;28;20486;-74
2022/03/22 16:54:44;;;;;;;13.77;6.60;;;23.20;51.20;;;;;;4970511;28;20462;-75
2022/03/22 16:57:11;;;;;;;9.37;6.03;;;22.90;51.70;;;;;;4974262;28;20460;-75
2022/03/22 16:59:39;;;;;;;10.43;6.37;;;22.70;50.60;;;;;;4973610;28;20462;-74
2022/03/22 17:02:06;;;;;;;10.63;6.60;;;22.40;52.00;;;;;;4971079;28;20537;-73
2022/03/22 17:04:33;;;;;;;12.37;7.87;;;22.20;51.90;;;;;;4972384;28;20457;-77
2022/03/22 17:07:00;;;;;;;18.77;7.07;;;21.90;52.20;;;;;;4973080;28;20457;-73
2022/03/22 17:09:27;;;;;;;8.97;6.40;;;21.60;51.30;;;;;;4977785;28;20506;-69
2022/03/22 17:11:56;;;;;;;8.97;6.07;;;21.30;51.80;;;;;;4973335;28;20526;-69
2022/03/22 17:14:23;;;;;;;11.60;6.40;;;21.00;51.00;;;;;;4976924;28;20555;-68
2022/03/22 17:16:50;;;;;;;7.77;5.90;;;20.70;51.60;;;;;;4977080;28;20484;-67
2022/03/22 17:19:18;;;;;;;7.63;6.10;;;20.40;51.60;;;;;;4976393;28;20449;-69
2022/03/22 17:21:46;;;;;;;9.10;6.07;;;20.20;51.10;;;;;;4969993;28;20566;-70
2022/03/22 17:24:13;;;;;;;10.17;6.50;;;20.00;51.80;;;;;;4970074;28;20451;-67
2022/03/22 17:26:40;;;;;;;9.53;5.87;;;19.90;52.80;;;;;;4973980;28;20884;-76
2022/03/22 17:29:09;;;;;;;8.40;6.47;;;19.70;53.50;;;;;;4973369;28;20456;-76
2022/03/22 17:31:36;;;;;;;8.60;6.57;;;19.50;52.40;;;;;;4973122;28;20487;-76
2022/03/22 17:34:04;;;;;;;8.80;7.30;;;19.40;52.40;;;;;;4977069;28;20492;-76
2022/03/22 17:36:31;;;;;;;11.33;7.63;;;19.30;52.00;;;;;;4972595;28;20536;-76
2022/03/22 17:38:59;;;;;;;10.43;6.70;;;19.20;53.60;;;;;;4973021;28;20556;-76
2022/03/22 17:41:28;;;;;;;10.63;6.77;;;19.00;54.40;;;;;;4973390;28;20484;-76
2022/03/22 17:43:56;;;;;;;12.67;7.77;;;18.90;54.20;;;;;;4977135;28;20460;-76
2022/03/22 17:46:26;;;;;;;8.60;6.53;;;18.80;54.90;;;;;;4977883;28;20463;-76
2022/03/22 17:48:53;;;;;;;10.27;6.63;;;18.60;54.70;;;;;;4977119;28;20448;-76
2022/03/22 17:51:20;;;;;;;8.90;6.60;;;18.60;55.80;;;;;;4975729;28;20607;-76
2022/03/22 17:53:47;;;;;;;7.83;5.80;;;18.40;54.60;;;;;;4981001;28;20483;-72
2022/03/22 17:56:14;;;;;;;7.70;5.83;;;18.20;55.40;;;;;;4978079;28;20538;-79
2022/03/22 17:58:43;;;;;;;8.73;6.33;;;18.10;55.80;;;;;;4979632;28;20470;-78
2022/03/22 18:01:12;;;;;;;7.30;5.60;;;18.00;55.30;;;;;;4976044;28;20491;-78
2022/03/22 18:03:40;;;;;;;7.80;6.30;;;17.80;56.90;;;;;;4975560;28;20970;-78
2022/03/22 18:06:08;;;;;;;7.67;6.47;;;17.70;55.40;;;;;;4974285;28;20448;-78
2022/03/22 18:08:35;;;;;;;9.93;6.70;;;17.60;56.60;;;;;;4975631;28;20452;-78
2022/03/22 18:13:46;;;;;;;7.57;5.97;;;17.40;57.20;;;;;;4967090;28;20475;-81